Dades meteomassalio
Diari Summary for Agost 10, 2017 Units:  English    Metric   Both
« Previous Day
Next Day »
Diari Semanal Mensual Anual Personalitzat
  Maxima: Minima: Mijana:
Temperatura: TemperatureC °F 13.1 °F 18.7 °F
Rosada: DewpointC °F 8.2 °F 9.5 °F
Humitat: Humidity % 39 % 56 %
Velocitat del vent: WindSpeedKMH mph 5.6 mph 28.5 mph
Racha vent: WindSpeedGustKMH mph - -
Vent:- - WNW
Pressio: PressurehPa in 1020.5 in -
Pluja: 0.0 in    
Historical Graphs
 
 
Tabular Data for Agost 10, 2017
Time Temperature Dew Point Pressure Wind Wind Speed Wind Gust Humidity Rainfall Rate (Hourly) solar Conditions
TemperatureC °F DewpointC °F PressurehPa in Calm     Humidity % HourlyPrecipMM in SolarRadiationWatts/m^2 W/m2 Conditions
00:04 15.9 °F 9.8 °F 1021.6 in WNW 16.1 mph 16.1 mph 67 % 0.0 in 0.0 W/m2 RA
00:09 15.9 °F 9.6 °F 1021.6 in WNW 22.2 mph 22.2 mph 66 % 0.0 in 0.0 W/m2 CLR
00:14 16.0 °F 9.7 °F 1021.6 in WNW 18.5 mph 18.5 mph 66 % 0.0 in 0.0 W/m2 CLR
00:19 16.1 °F 9.2 °F 1021.6 in NW 22.2 mph 22.2 mph 64 % 0.0 in 0.0 W/m2 CLR
00:24 16.1 °F 9.3 °F 1021.6 in WNW 27.8 mph 27.8 mph 64 % 0.0 in 0.0 W/m2 CLR
00:29 16.1 °F 9.3 °F 1021.6 in West 18.5 mph 18.5 mph 64 % 0.5 in 0.0 W/m2 CLR
00:34 16.1 °F 8.8 °F 1021.9 in WNW 27.8 mph 27.8 mph 62 % 0.3 in 0.0 W/m2 CLR
00:39 16.2 °F 8.6 °F 1021.9 in NW 29.6 mph 29.6 mph 61 % 0.0 in 0.0 W/m2 CLR
00:44 16.1 °F 8.8 °F 1021.9 in WNW 18.5 mph 18.5 mph 62 % 0.0 in 0.0 W/m2 CLR
00:49 16.1 °F 8.8 °F 1021.9 in WNW 22.2 mph 22.2 mph 62 % 0.0 in 0.0 W/m2 CLR
00:54 16.1 °F 8.8 °F 1021.9 in NW 27.8 mph 27.8 mph 62 % 0.0 in 0.0 W/m2 CLR
00:59 16.0 °F 8.7 °F 1021.9 in WNW 24.1 mph 24.1 mph 62 % 0.0 in 0.0 W/m2 CLR
01:04 16.0 °F 8.7 °F 1021.9 in West 29.6 mph 29.6 mph 62 % 0.0 in 0.0 W/m2 CLR
01:09 16.0 °F 8.7 °F 1021.9 in NW 27.8 mph 27.8 mph 62 % 0.0 in 0.0 W/m2 CLR
01:14 15.9 °F 8.7 °F 1021.9 in WNW 22.2 mph 22.2 mph 62 % 0.0 in 0.0 W/m2 CLR
01:19 15.9 °F 8.6 °F 1021.9 in NW 27.4 mph 27.4 mph 62 % 0.0 in 0.0 W/m2 CLR
01:24 15.9 °F 8.6 °F 1021.9 in WNW 31.5 mph 31.5 mph 62 % 0.0 in 0.0 W/m2 CLR
01:29 15.8 °F 8.6 °F 1022.2 in NW 27.8 mph 27.8 mph 62 % 0.0 in 0.0 W/m2 CLR
01:34 15.8 °F 8.6 °F 1022.2 in WNW 18.5 mph 18.5 mph 62 % 0.0 in 0.0 W/m2 CLR
01:39 15.8 °F 8.8 °F 1022.2 in NW 20.4 mph 20.4 mph 63 % 0.0 in 0.0 W/m2 CLR
01:44 15.8 °F 8.6 °F 1022.2 in NW 24.1 mph 24.1 mph 62 % 0.0 in 0.0 W/m2 CLR
01:49 15.8 °F 8.8 °F 1022.2 in NNW 20.4 mph 20.4 mph 63 % 0.0 in 0.0 W/m2 CLR
01:54 15.8 °F 8.8 °F 1022.2 in WNW 20.4 mph 20.4 mph 63 % 0.0 in 0.0 W/m2 CLR
01:59 15.8 °F 8.7 °F 1022.2 in West 22.2 mph 22.2 mph 63 % 0.0 in 0.0 W/m2 CLR
02:04 15.7 °F 8.9 °F 1022.2 in WNW 25.9 mph 25.9 mph 64 % 0.0 in 0.0 W/m2 CLR
02:09 15.6 °F 9.1 °F 1022.6 in WNW 27.8 mph 27.8 mph 65 % 0.0 in 0.0 W/m2 CLR
02:14 15.6 °F 9.0 °F 1022.2 in WNW 24.1 mph 24.1 mph 65 % 0.0 in 0.0 W/m2 CLR
02:19 15.6 °F 9.0 °F 1022.2 in West 27.8 mph 27.8 mph 65 % 0.0 in 0.0 W/m2 CLR
02:24 15.5 °F 9.2 °F 1022.2 in WNW 22.2 mph 22.2 mph 66 % 0.0 in 0.0 W/m2 CLR
02:26 15.5 °F 9.2 °F 1022.2 in WNW 20.9 mph 20.9 mph 66 % 0.0 in 0.0 W/m2 CLR
02:31 15.3 °F 9.2 °F 1022.2 in NW 18.5 mph 18.5 mph 67 % 0.0 in 0.0 W/m2 CLR
02:36 15.3 °F 8.9 °F 1021.9 in NNW 22.2 mph 22.2 mph 66 % 0.0 in 0.0 W/m2 CLR
02:41 15.3 °F 8.9 °F 1021.9 in West 33.3 mph 33.3 mph 66 % 0.0 in 0.0 W/m2 CLR
02:46 15.3 °F 8.9 °F 1021.9 in WNW 37.0 mph 37.0 mph 66 % 0.0 in 0.0 W/m2 CLR
02:51 15.3 °F 8.9 °F 1021.9 in NW 37.0 mph 37.0 mph 66 % 0.0 in 0.0 W/m2 CLR
02:56 15.2 °F 8.9 °F 1021.9 in West 35.2 mph 35.2 mph 66 % 0.0 in 0.0 W/m2 CLR
03:01 15.1 °F 8.8 °F 1021.9 in West 35.4 mph 35.4 mph 66 % 0.0 in 0.0 W/m2 CLR
03:06 15.1 °F 8.8 °F 1021.9 in WNW 27.8 mph 27.8 mph 66 % 0.0 in 0.0 W/m2 CLR
03:11 15.0 °F 8.9 °F 1021.6 in NW 31.5 mph 31.5 mph 67 % 0.0 in 0.0 W/m2 CLR
03:16 15.0 °F 8.9 °F 1021.9 in NW 42.6 mph 42.6 mph 67 % 0.0 in 0.0 W/m2 CLR
03:21 14.9 °F 8.9 °F 1021.6 in WNW 25.9 mph 25.9 mph 67 % 0.0 in 0.0 W/m2 CLR
03:26 14.8 °F 9.0 °F 1021.6 in NW 35.2 mph 35.2 mph 68 % 0.0 in 0.0 W/m2 CLR
03:31 14.8 °F 9.0 °F 1021.9 in WNW 25.9 mph 25.9 mph 68 % 0.0 in 0.0 W/m2 CLR
03:36 14.8 °F 8.9 °F 1021.9 in WSW 16.7 mph 16.7 mph 68 % 0.0 in 0.0 W/m2 CLR
03:41 14.7 °F 8.9 °F 1021.6 in WNW 27.8 mph 27.8 mph 68 % 0.0 in 0.0 W/m2 CLR
03:46 14.6 °F 9.0 °F 1021.6 in WNW 24.1 mph 24.1 mph 69 % 0.0 in 0.0 W/m2 CLR
03:51 14.6 °F 8.9 °F 1021.6 in WNW 20.4 mph 20.4 mph 69 % 0.0 in 0.0 W/m2 CLR
03:56 14.4 °F 8.8 °F 1021.6 in WNW 27.4 mph 27.4 mph 69 % 0.0 in 0.0 W/m2 CLR
04:01 14.3 °F 8.9 °F 1021.6 in WNW 25.9 mph 25.9 mph 70 % 0.0 in 0.0 W/m2 CLR
04:06 14.3 °F 8.9 °F 1021.6 in NW 16.7 mph 16.7 mph 70 % 0.0 in 0.0 W/m2 CLR
04:11 14.2 °F 8.8 °F 1021.9 in WNW 16.7 mph 16.7 mph 70 % 0.0 in 0.0 W/m2 CLR
04:16 14.2 °F 8.8 °F 1021.9 in West 18.5 mph 18.5 mph 70 % 0.0 in 0.0 W/m2 CLR
04:21 14.1 °F 8.7 °F 1021.9 in WNW 20.4 mph 20.4 mph 70 % 0.0 in 0.0 W/m2 CLR
04:26 14.1 °F 8.7 °F 1021.9 in West 18.5 mph 18.5 mph 70 % 0.0 in 0.0 W/m2 CLR
04:31 14.1 °F 8.7 °F 1021.9 in WSW 14.8 mph 14.8 mph 70 % 0.0 in 0.0 W/m2 CLR
04:36 14.0 °F 8.6 °F 1021.9 in West 24.1 mph 24.1 mph 70 % 0.0 in 0.0 W/m2 CLR
04:41 14.0 °F 8.6 °F 1021.9 in WNW 20.9 mph 20.9 mph 70 % 0.0 in 0.0 W/m2 CLR
04:46 13.9 °F 8.6 °F 1021.9 in West 18.5 mph 18.5 mph 70 % 0.0 in 0.0 W/m2 CLR
04:51 13.9 °F 8.8 °F 1021.9 in WNW 20.9 mph 20.9 mph 71 % 0.0 in 0.0 W/m2 CLR
04:56 13.9 °F 8.7 °F 1021.9 in WNW 24.1 mph 24.1 mph 71 % 0.0 in 0.0 W/m2 CLR
05:01 13.8 °F 8.6 °F 1021.9 in WNW 18.5 mph 18.5 mph 71 % 0.0 in 0.0 W/m2 CLR
05:06 13.7 °F 8.8 °F 1021.6 in West 24.1 mph 24.1 mph 72 % 0.0 in 0.0 W/m2 CLR
05:11 13.7 °F 8.8 °F 1021.9 in WNW 19.3 mph 19.3 mph 72 % 0.0 in 0.0 W/m2 CLR
05:16 13.8 °F 8.6 °F 1021.9 in WNW 24.1 mph 24.1 mph 71 % 0.0 in 0.0 W/m2 CLR
05:21 13.8 °F 8.7 °F 1021.9 in West 20.4 mph 20.4 mph 71 % 0.0 in 0.0 W/m2 CLR
05:23 13.8 °F 8.6 °F 1021.6 in West 24.1 mph 24.1 mph 71 % 0.0 in 0.0 W/m2 CLR
05:24 13.8 °F 8.6 °F 1021.6 in WNW 20.4 mph 20.4 mph 71 % 0.0 in 0.0 W/m2 CLR
05:26 13.8 °F 8.6 °F 1021.6 in West 20.4 mph 20.4 mph 71 % 0.0 in 0.0 W/m2 CLR
05:31 13.7 °F 8.6 °F 1021.6 in NW 25.7 mph 25.7 mph 71 % 0.0 in 0.0 W/m2 CLR
05:34 13.7 °F 8.5 °F 1021.6 in WNW 20.9 mph 20.9 mph 71 % 0.0 in 0.0 W/m2 CLR
05:36 13.7 °F 8.5 °F 1021.6 in WSW 25.9 mph 25.9 mph 71 % 0.0 in 0.0 W/m2 CLR
05:41 13.6 °F 8.4 °F 1021.6 in West 22.5 mph 22.5 mph 71 % 0.0 in 0.0 W/m2 CLR
05:46 13.6 °F 8.4 °F 1021.6 in West 18.5 mph 18.5 mph 71 % 0.0 in 0.0 W/m2 CLR
05:51 13.7 °F 8.5 °F 1021.9 in WNW 20.9 mph 20.9 mph 71 % 0.0 in 0.0 W/m2 CLR
05:56 13.6 °F 8.4 °F 1021.6 in WNW 16.7 mph 16.7 mph 71 % 0.0 in 0.0 W/m2 CLR
06:01 13.7 °F 8.5 °F 1021.6 in WNW 25.9 mph 25.9 mph 71 % 0.0 in 0.0 W/m2 CLR
06:06 13.6 °F 8.4 °F 1021.9 in WNW 18.5 mph 18.5 mph 71 % 0.0 in 0.0 W/m2 CLR
06:11 13.6 °F 8.4 °F 1021.9 in WNW 25.9 mph 25.9 mph 71 % 0.0 in 0.0 W/m2 CLR
06:16 13.6 °F 8.4 °F 1021.9 in West 22.2 mph 22.2 mph 71 % 0.0 in 0.0 W/m2 CLR
06:21 13.6 °F 8.4 °F 1021.9 in West 31.5 mph 31.5 mph 71 % 0.0 in 0.0 W/m2 CLR
06:26 13.6 °F 8.4 °F 1021.9 in WNW 20.9 mph 20.9 mph 71 % 0.0 in 0.0 W/m2 CLR
06:31 13.6 °F 8.4 °F 1021.9 in WNW 22.2 mph 22.2 mph 71 % 0.0 in 0.0 W/m2 CLR
06:36 13.6 °F 8.4 °F 1022.2 in WNW 20.9 mph 20.9 mph 71 % 0.0 in 0.0 W/m2 CLR
06:41 13.6 °F 8.4 °F 1022.2 in West 24.1 mph 24.1 mph 71 % 0.0 in 0.0 W/m2 CLR
06:46 13.6 °F 8.4 °F 1022.2 in WNW 22.2 mph 22.2 mph 71 % 0.0 in 0.0 W/m2 CLR
06:51 13.5 °F 8.3 °F 1022.2 in WNW 22.5 mph 22.5 mph 71 % 0.0 in 0.0 W/m2 CLR
06:56 13.5 °F 8.3 °F 1022.2 in West 18.5 mph 18.5 mph 71 % 0.0 in 0.0 W/m2 CLR
07:01 13.6 °F 8.4 °F 1022.2 in WSW 16.7 mph 16.7 mph 71 % 0.0 in 0.0 W/m2 OVC
07:02 13.6 °F 8.4 °F 1022.2 in West 16.7 mph 16.7 mph 71 % 0.0 in 0.0 W/m2 OVC
07:07 13.5 °F 8.3 °F 1022.6 in SW 11.1 mph 11.1 mph 71 % 0.0 in 0.0 W/m2 OVC
07:12 13.4 °F 8.2 °F 1022.6 in West 13.0 mph 13.0 mph 71 % 0.0 in 5.0 W/m2 OVC
07:17 13.3 °F 8.3 °F 1022.6 in WSW 14.8 mph 14.8 mph 72 % 0.0 in 7.0 W/m2 BKN
07:22 13.2 °F 8.2 °F 1022.6 in West 11.1 mph 11.1 mph 72 % 0.0 in 9.0 W/m2 BKN
07:27 13.1 °F 8.2 °F 1022.6 in WSW 11.1 mph 11.1 mph 72 % 0.0 in 11.0 W/m2 BKN
07:32 13.1 °F 8.4 °F 1022.6 in WSW 14.5 mph 14.5 mph 73 % 0.0 in 14.0 W/m2 BKN
07:37 13.2 °F 8.2 °F 1022.6 in West 13.0 mph 13.0 mph 72 % 0.0 in 18.0 W/m2 BKN
07:42 13.3 °F 8.6 °F 1022.6 in WSW 16.7 mph 16.7 mph 73 % 0.0 in 33.0 W/m2 BKN
07:47 13.5 °F 8.6 °F 1022.9 in West 16.7 mph 16.7 mph 72 % 0.0 in 42.0 W/m2 BKN
07:52 13.7 °F 8.7 °F 1022.9 in WSW 9.7 mph 9.7 mph 72 % 0.0 in 63.0 W/m2 SCT
07:57 13.9 °F 8.7 °F 1022.9 in SW 5.6 mph 5.6 mph 71 % 0.0 in 76.0 W/m2 FEW
08:02 14.0 °F 8.8 °F 1022.9 in West 18.5 mph 18.5 mph 71 % 0.0 in 88.0 W/m2 FEW
08:07 14.2 °F 8.8 °F 1022.9 in West 16.7 mph 16.7 mph 70 % 0.0 in 42.0 W/m2 FEW
08:12 14.3 °F 8.9 °F 1022.9 in West 18.5 mph 18.5 mph 70 % 0.0 in 47.0 W/m2 FEW
08:17 14.4 °F 9.0 °F 1023.2 in WSW 14.8 mph 14.8 mph 70 % 0.0 in 144.0 W/m2 SCT
08:22 14.6 °F 9.0 °F 1023.2 in WNW 18.5 mph 18.5 mph 69 % 0.0 in 144.0 W/m2 FEW
08:27 14.7 °F 9.1 °F 1023.2 in West 24.1 mph 24.1 mph 69 % 0.0 in 109.0 W/m2 FEW
08:32 14.8 °F 9.0 °F 1023.2 in West 18.5 mph 18.5 mph 68 % 0.0 in 120.0 W/m2 CLR
08:37 14.9 °F 9.1 °F 1023.2 in West 24.1 mph 24.1 mph 68 % 0.0 in 130.0 W/m2 CLR
08:42 15.1 °F 9.0 °F 1023.2 in WNW 33.3 mph 33.3 mph 67 % 0.0 in 156.0 W/m2 CLR
08:47 15.2 °F 9.1 °F 1023.2 in West 22.2 mph 22.2 mph 67 % 0.0 in 83.0 W/m2 CLR
08:52 15.2 °F 9.1 °F 1023.2 in West 22.2 mph 22.2 mph 67 % 0.0 in 84.0 W/m2 CLR
08:57 15.4 °F 9.3 °F 1023.2 in West 25.9 mph 25.9 mph 67 % 0.0 in 301.0 W/m2 CLR
09:02 15.5 °F 9.4 °F 1023.2 in West 31.5 mph 31.5 mph 67 % 0.0 in 302.0 W/m2 CLR
09:07 15.7 °F 9.6 °F 1023.2 in WNW 13.0 mph 14.6 mph 67 % 0.0 in 327.0 W/m2 CLR
09:12 16.0 °F 9.7 °F 1023.2 in West 29.6 mph 29.6 mph 66 % 0.0 in 329.0 W/m2 CLR
09:17 16.1 °F 9.5 °F 1023.2 in WNW 29.6 mph 29.6 mph 65 % 0.0 in 343.0 W/m2 CLR
09:23 16.2 °F 9.6 °F 1023.2 in West 20.4 mph 20.4 mph 65 % 0.0 in 353.0 W/m2 CLR
09:28 16.4 °F 9.6 °F 1023.2 in WNW 22.2 mph 22.2 mph 64 % 0.0 in 410.0 W/m2 CLR
09:33 16.4 °F 9.8 °F 1023.2 in WNW 38.6 mph 38.6 mph 65 % 0.0 in 211.0 W/m2 CLR
09:38 16.7 °F 9.9 °F 1023.2 in WNW 30.6 mph 30.6 mph 64 % 0.0 in 190.0 W/m2 CLR
09:43 16.7 °F 9.8 °F 1023.2 in NW 29.6 mph 29.6 mph 64 % 0.0 in 445.0 W/m2 CLR
09:48 16.8 °F 9.7 °F 1023.2 in NW 35.2 mph 35.2 mph 63 % 0.0 in 471.0 W/m2 CLR
09:53 17.1 °F 10.0 °F 1023.2 in WNW 38.9 mph 38.9 mph 63 % 0.0 in 499.0 W/m2 CLR
09:58 17.2 °F 10.1 °F 1023.2 in NW 29.0 mph 29.0 mph 63 % 0.0 in 492.0 W/m2 CLR
10:03 17.5 °F 10.1 °F 1023.2 in WNW 22.2 mph 22.2 mph 62 % 0.0 in 559.0 W/m2 CLR
10:08 17.7 °F 10.3 °F 1023.2 in NW 24.1 mph 24.1 mph 62 % 0.0 in 612.0 W/m2 CLR
10:13 17.8 °F 9.9 °F 1023.2 in WNW 25.9 mph 25.9 mph 60 % 0.0 in 635.0 W/m2 CLR
10:18 17.8 °F 9.9 °F 1023.2 in WNW 33.3 mph 33.3 mph 60 % 0.0 in 680.0 W/m2 CLR
10:23 17.7 °F 10.1 °F 1023.2 in NNW 22.2 mph 22.2 mph 61 % 0.0 in 615.0 W/m2 CLR
10:28 18.0 °F 10.1 °F 1023.2 in West 35.4 mph 35.4 mph 60 % 0.0 in 686.0 W/m2 CLR
10:33 18.3 °F 9.9 °F 1023.2 in WNW 29.0 mph 29.0 mph 58 % 0.0 in 701.0 W/m2 CLR
10:38 18.4 °F 10.0 °F 1023.2 in NW 31.5 mph 31.5 mph 58 % 0.0 in 714.0 W/m2 CLR
10:43 18.7 °F 10.0 °F 1023.2 in NNW 29.6 mph 29.6 mph 57 % 0.0 in 763.0 W/m2 CLR
10:48 18.6 °F 9.9 °F 1023.2 in NW 30.6 mph 30.6 mph 57 % 0.0 in 682.0 W/m2 CLR
10:53 18.8 °F 9.8 °F 1023.2 in NW 33.8 mph 33.8 mph 56 % 0.0 in 703.0 W/m2 CLR
10:58 18.9 °F 9.9 °F 1023.2 in NNW 30.6 mph 30.6 mph 56 % 0.0 in 763.0 W/m2 CLR
11:03 18.9 °F 9.9 °F 1023.2 in NW 32.2 mph 32.2 mph 56 % 0.0 in 151.0 W/m2 CLR
11:08 18.7 °F 10.0 °F 1023.2 in NNW 31.5 mph 31.5 mph 57 % 0.0 in 729.0 W/m2 CLR
11:13 19.2 °F 10.2 °F 1023.2 in NW 27.8 mph 27.8 mph 56 % 0.0 in 826.0 W/m2 CLR
11:18 19.6 °F 10.3 °F 1023.2 in NW 29.6 mph 29.6 mph 55 % 0.0 in 779.0 W/m2 CLR
11:23 19.6 °F 10.0 °F 1022.9 in WNW 29.6 mph 29.6 mph 54 % 0.0 in 846.0 W/m2 CLR
11:28 19.3 °F 9.8 °F 1022.9 in NW 29.6 mph 29.6 mph 54 % 0.0 in 155.0 W/m2 CLR
11:33 19.3 °F 9.7 °F 1022.9 in NW 38.6 mph 38.6 mph 54 % 0.0 in 798.0 W/m2 CLR
11:38 19.7 °F 9.8 °F 1022.9 in NW 31.5 mph 31.5 mph 53 % 0.0 in 798.0 W/m2 CLR
11:43 19.8 °F 9.9 °F 1022.9 in NW 33.3 mph 33.3 mph 53 % 0.0 in 810.0 W/m2 CLR
11:48 19.8 °F 9.7 °F 1022.9 in NW 38.9 mph 38.9 mph 52 % 0.0 in 211.0 W/m2 CLR
11:53 19.6 °F 9.8 °F 1022.6 in WNW 29.6 mph 29.6 mph 53 % 0.0 in 905.0 W/m2 CLR
11:58 19.8 °F 9.4 °F 1022.9 in North 25.9 mph 25.9 mph 51 % 0.0 in 954.0 W/m2 CLR
12:03 20.2 °F 9.8 °F 1022.6 in NNW 35.4 mph 35.4 mph 51 % 0.0 in 889.0 W/m2 CLR
12:08 20.5 °F 9.7 °F 1022.6 in WNW 35.2 mph 35.2 mph 50 % 0.0 in 824.0 W/m2 CLR
12:13 20.8 °F 9.7 °F 1022.6 in NW 27.8 mph 27.8 mph 49 % 0.0 in 916.0 W/m2 CLR
12:18 20.8 °F 9.7 °F 1022.6 in NW 31.5 mph 31.5 mph 49 % 0.0 in 879.0 W/m2 CLR
12:23 20.7 °F 9.6 °F 1022.6 in NNW 42.6 mph 42.6 mph 49 % 0.0 in 830.0 W/m2 CLR
12:28 20.6 °F 9.8 °F 1022.6 in NW 29.0 mph 29.0 mph 50 % 0.0 in 840.0 W/m2 CLR
12:33 20.7 °F 9.3 °F 1022.9 in NNW 44.4 mph 44.4 mph 48 % 0.0 in 840.0 W/m2 CLR
12:38 20.9 °F 9.4 °F 1022.6 in NW 35.2 mph 35.2 mph 48 % 0.0 in 865.0 W/m2 CLR
12:43 20.8 °F 9.7 °F 1022.6 in NW 24.1 mph 24.1 mph 49 % 0.0 in 893.0 W/m2 CLR
12:48 21.3 °F 9.5 °F 1022.6 in NNW 38.9 mph 38.9 mph 47 % 0.0 in 867.0 W/m2 CLR
12:53 21.3 °F 9.6 °F 1022.2 in NNW 31.5 mph 31.5 mph 47 % 0.0 in 867.0 W/m2 CLR
12:58 21.6 °F 9.8 °F 1022.2 in WNW 31.5 mph 31.5 mph 47 % 0.0 in 872.0 W/m2 CLR
13:03 21.5 °F 9.7 °F 1022.2 in NW 42.6 mph 42.6 mph 47 % 0.0 in 886.0 W/m2 CLR
13:08 21.4 °F 9.9 °F 1022.2 in NNW 35.4 mph 35.4 mph 48 % 0.0 in 877.0 W/m2 CLR
13:13 21.6 °F 10.1 °F 1022.2 in NNW 31.5 mph 31.5 mph 48 % 0.0 in 933.0 W/m2 CLR
13:18 21.7 °F 9.6 °F 1022.6 in NNW 37.0 mph 37.0 mph 46 % 0.0 in 954.0 W/m2 CLR
13:23 21.9 °F 9.4 °F 1022.2 in NW 40.7 mph 40.7 mph 45 % 0.0 in 933.0 W/m2 CLR
13:28 22.0 °F 10.2 °F 1022.2 in NW 33.3 mph 33.3 mph 47 % 0.0 in 960.0 W/m2 CLR
13:33 22.2 °F 9.7 °F 1022.2 in WNW 35.2 mph 35.2 mph 45 % 0.0 in 979.0 W/m2 CLR
13:38 22.2 °F 9.7 °F 1021.9 in West 29.0 mph 29.0 mph 45 % 0.0 in 1041.0 W/m2 CLR
13:43 22.2 °F 9.7 °F 1022.2 in WNW 29.6 mph 29.6 mph 45 % 0.0 in 951.0 W/m2 CLR
13:48 22.5 °F 9.9 °F 1021.9 in NNW 24.1 mph 24.1 mph 45 % 0.0 in 1046.0 W/m2 CLR
13:53 22.8 °F 9.9 °F 1021.9 in WNW 22.2 mph 22.2 mph 44 % 0.0 in 930.0 W/m2 CLR
13:58 22.7 °F 9.8 °F 1021.9 in NW 24.1 mph 24.1 mph 44 % 0.0 in 925.0 W/m2 CLR
14:03 22.8 °F 9.6 °F 1021.9 in NW 37.0 mph 37.0 mph 43 % 0.0 in 911.0 W/m2 CLR
14:08 22.6 °F 9.7 °F 1021.9 in WNW 22.2 mph 22.2 mph 44 % 0.0 in 905.0 W/m2 CLR
14:13 23.1 °F 9.8 °F 1021.9 in WNW 27.8 mph 27.8 mph 43 % 0.0 in 960.0 W/m2 CLR
14:18 23.2 °F 9.9 °F 1021.9 in NW 40.7 mph 40.7 mph 43 % 0.0 in 909.0 W/m2 CLR
14:19 23.2 °F 9.9 °F 1021.9 in NW 40.7 mph 40.7 mph 43 % 0.0 in 909.0 W/m2 CLR
14:24 23.2 °F 9.9 °F 1021.9 in WNW 38.9 mph 38.9 mph 43 % 0.0 in 928.0 W/m2 CLR
14:29 23.2 °F 9.6 °F 1021.9 in NW 37.0 mph 37.0 mph 42 % 0.0 in 949.0 W/m2 CLR
14:34 23.3 °F 9.7 °F 1021.9 in NNW 42.6 mph 42.6 mph 42 % 0.0 in 984.0 W/m2 CLR
14:39 23.4 °F 10.2 °F 1021.9 in WNW 24.1 mph 24.1 mph 43 % 0.0 in 998.0 W/m2 CLR
14:44 23.9 °F 9.8 °F 1021.6 in NNW 22.2 mph 22.2 mph 41 % 0.0 in 956.0 W/m2 CLR
14:49 24.1 °F 9.6 °F 1021.6 in NW 31.5 mph 31.5 mph 40 % 0.0 in 1034.0 W/m2 CLR
14:54 24.3 °F 10.2 °F 1021.6 in NNW 37.0 mph 37.0 mph 41 % 0.0 in 1104.0 W/m2 CLR
14:59 24.0 °F 9.6 °F 1021.6 in WNW 31.5 mph 31.5 mph 40 % 0.0 in 1002.0 W/m2 CLR
15:04 23.6 °F 9.6 °F 1021.6 in NNW 38.9 mph 38.9 mph 41 % 0.0 in 889.0 W/m2 CLR
15:09 23.6 °F 9.6 °F 1021.6 in NW 22.2 mph 22.2 mph 41 % 0.0 in 891.0 W/m2 CLR
15:14 23.8 °F 9.7 °F 1021.6 in NW 33.3 mph 33.3 mph 41 % 0.0 in 877.0 W/m2 CLR
15:19 24.2 °F 9.7 °F 1021.6 in NNW 27.8 mph 27.8 mph 40 % 0.0 in 872.0 W/m2 CLR
15:24 24.2 °F 9.7 °F 1021.6 in NNW 27.8 mph 27.8 mph 40 % 0.0 in 865.0 W/m2 CLR
15:29 24.2 °F 9.7 °F 1021.6 in NW 20.4 mph 20.4 mph 40 % 0.0 in 884.0 W/m2 CLR
15:34 24.6 °F 10.1 °F 1021.6 in NW 33.8 mph 33.8 mph 40 % 0.0 in 882.0 W/m2 CLR
15:39 24.6 °F 9.7 °F 1021.6 in NNW 33.3 mph 33.3 mph 39 % 0.0 in 856.0 W/m2 CLR
15:44 24.6 °F 10.1 °F 1021.6 in WNW 45.1 mph 45.1 mph 40 % 0.0 in 844.0 W/m2 CLR
15:49 24.4 °F 10.3 °F 1021.6 in NW 35.2 mph 35.2 mph 41 % 0.0 in 831.0 W/m2 CLR
15:54 24.2 °F 10.1 °F 1021.6 in NNW 42.6 mph 42.6 mph 41 % 0.0 in 830.0 W/m2 CLR
15:59 24.1 °F 10.0 °F 1021.6 in NNW 25.7 mph 25.7 mph 41 % 0.0 in 814.0 W/m2 CLR
16:04 24.3 °F 9.8 °F 1021.6 in NW 37.0 mph 37.0 mph 40 % 0.0 in 802.0 W/m2 CLR
16:09 24.2 °F 10.1 °F 1021.2 in WNW 29.6 mph 29.6 mph 41 % 0.0 in 807.0 W/m2 CLR
16:14 24.1 °F 10.0 °F 1021.2 in NW 38.9 mph 38.9 mph 41 % 0.0 in 788.0 W/m2 CLR
16:19 24.2 °F 10.1 °F 1021.2 in North 31.5 mph 31.5 mph 41 % 0.0 in 775.0 W/m2 CLR
16:24 24.6 °F 10.1 °F 1021.2 in NNW 37.0 mph 37.0 mph 40 % 0.0 in 761.0 W/m2 CLR
16:29 24.6 °F 10.1 °F 1021.2 in NNW 44.4 mph 44.4 mph 40 % 0.0 in 765.0 W/m2 CLR
16:34 24.3 °F 10.6 °F 1021.2 in NNW 38.9 mph 38.9 mph 42 % 0.0 in 733.0 W/m2 CLR
16:39 24.3 °F 10.2 °F 1021.2 in WNW 31.5 mph 31.5 mph 41 % 0.0 in 744.0 W/m2 CLR
16:44 24.4 °F 10.3 °F 1021.2 in WNW 31.5 mph 31.5 mph 41 % 0.0 in 710.0 W/m2 CLR
16:49 24.3 °F 10.2 °F 1021.2 in NNW 33.3 mph 33.3 mph 41 % 0.0 in 717.0 W/m2 CLR
16:54 24.2 °F 10.4 °F 1021.2 in WNW 37.0 mph 37.0 mph 42 % 0.0 in 703.0 W/m2 CLR
16:59 24.2 °F 10.1 °F 1021.2 in NNW 31.5 mph 31.5 mph 41 % 0.0 in 682.0 W/m2 CLR
17:04 24.4 °F 10.3 °F 1021.2 in WNW 32.2 mph 32.2 mph 41 % 0.0 in 666.0 W/m2 CLR
17:09 24.5 °F 10.0 °F 1020.9 in WNW 37.0 mph 37.0 mph 40 % 0.0 in 656.0 W/m2 CLR
17:14 24.3 °F 10.2 °F 1020.9 in NW 40.7 mph 40.7 mph 41 % 0.0 in 636.0 W/m2 CLR
17:19 24.4 °F 9.9 °F 1020.9 in North 29.6 mph 29.6 mph 40 % 0.0 in 624.0 W/m2 CLR
17:24 24.5 °F 10.4 °F 1020.9 in NNW 46.3 mph 46.3 mph 41 % 0.0 in 613.0 W/m2 CLR
17:29 24.2 °F 10.1 °F 1020.9 in NW 40.7 mph 40.7 mph 41 % 0.0 in 598.0 W/m2 CLR
17:34 24.1 °F 10.4 °F 1020.9 in NW 37.0 mph 37.0 mph 42 % 0.0 in 584.0 W/m2 CLR
17:39 24.3 °F 10.6 °F 1020.9 in NNW 31.5 mph 31.5 mph 42 % 0.0 in 568.0 W/m2 CLR
17:44 24.4 °F 10.7 °F 1020.9 in NNW 35.2 mph 35.2 mph 42 % 0.0 in 554.0 W/m2 CLR
17:49 24.2 °F 10.5 °F 1021.2 in NW 35.2 mph 35.2 mph 42 % 0.0 in 538.0 W/m2 CLR
17:54 24.1 °F 10.3 °F 1021.2 in NW 40.7 mph 40.7 mph 42 % 0.0 in 526.0 W/m2 CLR
17:59 24.1 °F 10.4 °F 1020.9 in WNW 29.6 mph 29.6 mph 42 % 0.0 in 508.0 W/m2 CLR
18:04 24.2 °F 10.4 °F 1021.2 in NNW 40.7 mph 40.7 mph 42 % 0.0 in 497.0 W/m2 CLR
18:05 24.1 °F 10.4 °F 1021.2 in North 40.7 mph 40.7 mph 42 % 0.0 in 494.0 W/m2 CLR
18:10 24.0 °F 9.9 °F 1020.9 in North 46.3 mph 46.3 mph 41 % 0.0 in 478.0 W/m2 CLR
18:15 23.8 °F 10.2 °F 1020.9 in NW 31.5 mph 31.5 mph 42 % 0.0 in 464.0 W/m2 CLR
18:20 23.9 °F 10.2 °F 1020.9 in NW 31.5 mph 31.5 mph 42 % 0.0 in 450.0 W/m2 CLR
18:25 24.0 °F 9.9 °F 1020.9 in NW 37.0 mph 37.0 mph 41 % 0.0 in 429.0 W/m2 CLR
18:30 24.1 °F 10.4 °F 1020.9 in NNW 31.5 mph 31.5 mph 42 % 0.0 in 410.0 W/m2 CLR
18:35 23.9 °F 10.2 °F 1020.9 in North 33.8 mph 33.8 mph 42 % 0.0 in 401.0 W/m2 CLR
18:40 23.9 °F 10.2 °F 1020.9 in NW 42.6 mph 42.6 mph 42 % 0.0 in 385.0 W/m2 CLR
18:45 23.8 °F 10.2 °F 1020.9 in NNW 35.2 mph 35.2 mph 42 % 0.0 in 362.0 W/m2 CLR
18:50 23.8 °F 10.2 °F 1020.9 in WNW 31.5 mph 31.5 mph 42 % 0.0 in 352.0 W/m2 CLR
18:55 23.8 °F 10.2 °F 1020.5 in WNW 31.5 mph 31.5 mph 42 % 0.0 in 336.0 W/m2 CLR
19:00 23.8 °F 10.1 °F 1020.9 in NW 44.4 mph 44.4 mph 42 % 0.0 in 318.0 W/m2 CLR
19:01 23.7 °F 10.1 °F 1020.5 in NW 42.6 mph 42.6 mph 42 % 0.0 in 316.0 W/m2 CLR
19:06 23.7 °F 10.1 °F 1020.9 in NNW 33.8 mph 33.8 mph 42 % 0.0 in 299.0 W/m2 CLR
19:11 23.7 °F 10.1 °F 1020.9 in NW 32.2 mph 32.2 mph 42 % 0.0 in 281.0 W/m2 CLR
19:16 23.3 °F 10.1 °F 1020.9 in NNW 40.7 mph 40.7 mph 43 % 0.0 in 51.0 W/m2 CLR
19:21 23.3 °F 10.4 °F 1020.9 in WNW 37.0 mph 37.0 mph 44 % 0.0 in 257.0 W/m2 CLR
19:26 23.3 °F 10.4 °F 1020.9 in WNW 38.9 mph 38.9 mph 44 % 0.0 in 239.0 W/m2 CLR
19:31 23.1 °F 10.2 °F 1020.9 in NW 44.4 mph 44.4 mph 44 % 0.0 in 216.0 W/m2 CLR
19:36 23.2 °F 10.2 °F 1020.9 in NW 38.9 mph 38.9 mph 44 % 0.0 in 200.0 W/m2 CLR
19:41 23.2 °F 10.2 °F 1020.9 in WNW 40.7 mph 40.7 mph 44 % 0.0 in 181.0 W/m2 CLR
19:46 23.1 °F 10.2 °F 1021.2 in NNW 35.2 mph 35.2 mph 44 % 0.0 in 163.0 W/m2 CLR
19:51 22.9 °F 10.4 °F 1020.9 in NW 24.1 mph 24.1 mph 45 % 0.0 in 144.0 W/m2 CLR
19:56 22.8 °F 10.2 °F 1021.2 in NW 40.7 mph 40.7 mph 45 % 0.0 in 127.0 W/m2 CLR
20:01 22.7 °F 10.5 °F 1021.2 in NW 31.5 mph 31.5 mph 46 % 0.0 in 111.0 W/m2 CLR
20:06 22.7 °F 10.1 °F 1021.2 in NNW 40.2 mph 40.2 mph 45 % 0.0 in 97.0 W/m2 CLR
20:11 22.5 °F 9.9 °F 1021.2 in NW 27.8 mph 27.8 mph 45 % 0.0 in 83.0 W/m2 FEW
20:16 22.3 °F 9.8 °F 1021.2 in NW 33.3 mph 33.3 mph 45 % 0.0 in 67.0 W/m2 FEW
20:21 22.2 °F 10.1 °F 1021.2 in NNW 35.2 mph 35.2 mph 46 % 0.0 in 54.0 W/m2 SCT
20:26 22.2 °F 10.3 °F 1021.2 in WNW 27.8 mph 27.8 mph 47 % 0.0 in 39.0 W/m2 BKN
20:31 21.9 °F 10.4 °F 1021.2 in WNW 35.2 mph 35.2 mph 48 % 0.0 in 30.0 W/m2 BKN
20:36 21.8 °F 10.3 °F 1021.6 in NW 24.1 mph 24.1 mph 48 % 0.0 in 21.0 W/m2 BKN
20:41 21.6 °F 10.1 °F 1021.6 in NNW 37.0 mph 37.0 mph 48 % 0.0 in 14.0 W/m2 BKN
20:46 21.4 °F 10.2 °F 1021.6 in NW 31.5 mph 31.5 mph 49 % 0.0 in 12.0 W/m2 BKN
20:51 21.1 °F 10.0 °F 1021.6 in WNW 27.8 mph 27.8 mph 49 % 0.0 in 11.0 W/m2 BKN
20:56 20.8 °F 10.0 °F 1021.6 in NW 31.5 mph 31.5 mph 50 % 0.0 in 7.0 W/m2 BKN
21:01 20.7 °F 10.2 °F 1021.6 in NW 29.6 mph 29.6 mph 51 % 0.0 in 5.0 W/m2 OVC
21:06 20.6 °F 10.1 °F 1021.6 in NW 19.3 mph 19.3 mph 51 % 0.0 in 0.0 W/m2 OVC
21:11 20.5 °F 10.0 °F 1021.6 in NW 29.6 mph 29.6 mph 51 % 0.0 in 0.0 W/m2 OVC
21:16 20.4 °F 9.9 °F 1021.6 in NNW 38.9 mph 38.9 mph 51 % 0.0 in 0.0 W/m2 CLR
21:18 20.4 °F 9.9 °F 1021.6 in NW 49.9 mph 49.9 mph 51 % 0.0 in 0.0 W/m2 CLR
21:23 20.3 °F 10.1 °F 1021.9 in WNW 40.2 mph 40.2 mph 52 % 0.0 in 0.0 W/m2 CLR
21:28 20.1 °F 10.2 °F 1021.9 in WNW 31.5 mph 31.5 mph 53 % 0.0 in 0.0 W/m2 CLR
21:33 19.9 °F 10.1 °F 1021.9 in NW 42.6 mph 42.6 mph 53 % 0.0 in 0.0 W/m2 CLR
21:38 19.8 °F 10.3 °F 1021.9 in WNW 22.2 mph 22.2 mph 54 % 0.0 in 0.0 W/m2 CLR
21:43 19.7 °F 10.4 °F 1022.2 in WNW 31.5 mph 31.5 mph 55 % 0.0 in 0.0 W/m2 CLR
21:48 19.6 °F 10.3 °F 1022.2 in WNW 31.5 mph 31.5 mph 55 % 0.0 in 0.0 W/m2 CLR
21:53 19.6 °F 10.3 °F 1022.2 in WNW 37.0 mph 37.0 mph 55 % 0.0 in 0.0 W/m2 CLR
21:58 19.4 °F 10.2 °F 1022.6 in WNW 35.2 mph 35.2 mph 55 % 0.0 in 0.0 W/m2 CLR
22:03 19.4 °F 10.1 °F 1022.6 in WNW 31.5 mph 31.5 mph 55 % 0.0 in 0.0 W/m2 CLR
22:08 19.3 °F 10.0 °F 1022.6 in NW 42.6 mph 42.6 mph 55 % 0.0 in 0.0 W/m2 CLR
22:13 19.1 °F 9.8 °F 1022.6 in West 27.4 mph 27.4 mph 55 % 0.0 in 0.0 W/m2 CLR
22:18 19.1 °F 9.8 °F 1022.9 in WNW 27.8 mph 27.8 mph 55 % 0.0 in 0.0 W/m2 CLR
22:23 18.9 °F 9.7 °F 1022.9 in WNW 27.8 mph 27.8 mph 55 % 0.0 in 0.0 W/m2 CLR
22:28 18.9 °F 9.7 °F 1022.9 in WNW 29.6 mph 29.6 mph 55 % 0.0 in 0.0 W/m2 CLR
22:33 18.8 °F 9.6 °F 1022.9 in WNW 33.3 mph 33.3 mph 55 % 0.0 in 0.0 W/m2 CLR
22:38 18.7 °F 9.5 °F 1023.2 in NW 29.6 mph 29.6 mph 55 % 0.0 in 0.0 W/m2 CLR
22:43 18.6 °F 9.4 °F 1023.2 in NW 25.9 mph 25.9 mph 55 % 0.0 in 0.0 W/m2 CLR
22:48 18.6 °F 9.6 °F 1023.2 in West 25.9 mph 25.9 mph 56 % 0.0 in 0.0 W/m2 CLR
22:53 18.5 °F 9.6 °F 1023.2 in WNW 24.1 mph 24.1 mph 56 % 0.0 in 0.0 W/m2 CLR
22:58 18.4 °F 9.5 °F 1023.2 in WNW 20.9 mph 20.9 mph 56 % 0.0 in 0.0 W/m2 CLR
23:03 18.4 °F 9.7 °F 1023.2 in WNW 29.6 mph 29.6 mph 57 % 0.0 in 0.0 W/m2 CLR
23:08 18.3 °F 9.7 °F 1023.2 in WNW 25.9 mph 25.9 mph 57 % 0.0 in 0.0 W/m2 CLR
23:13 18.2 °F 9.6 °F 1023.6 in WNW 25.9 mph 25.9 mph 57 % 0.0 in 0.0 W/m2 CLR
23:18 18.2 °F 9.8 °F 1023.2 in WNW 24.1 mph 24.1 mph 58 % 0.0 in 0.0 W/m2 CLR
23:23 18.1 °F 9.7 °F 1023.2 in WNW 25.9 mph 25.9 mph 58 % 0.0 in 0.0 W/m2 CLR
23:28 18.1 °F 9.7 °F 1023.6 in WSW 31.5 mph 31.5 mph 58 % 0.0 in 0.0 W/m2 CLR
23:33 18.0 °F 9.6 °F 1023.6 in WNW 22.2 mph 22.2 mph 58 % 0.0 in 0.0 W/m2 CLR
23:38 17.9 °F 9.8 °F 1023.6 in WSW 14.8 mph 14.8 mph 59 % 0.0 in 0.0 W/m2 CLR
23:43 17.8 °F 9.4 °F 1023.6 in West 20.9 mph 20.9 mph 58 % 0.0 in 0.0 W/m2 CLR
23:48 17.8 °F 9.4 °F 1023.6 in West 22.2 mph 22.2 mph 58 % 0.0 in 0.0 W/m2 CLR
23:53 17.7 °F 9.6 °F 1023.6 in West 22.2 mph 22.2 mph 59 % 0.0 in 0.0 W/m2 CLR
23:58 17.7 °F 9.6 °F 1023.6 in WNW 24.1 mph 24.1 mph 59 % 0.0 in 0.0 W/m2 CLR
Lo Temps de Massalio
Compliments of Weather Underground - 1.25 mb